sensor_id;sensor_type;location;lat;lon;timestamp;P1;durP1;ratioP1;P2;durP2;ratioP2
83630;SDS011;73593;52.134;5.426;2024-02-28T00:00:36;33.00;;;12.60;;
83630;SDS011;73593;52.134;5.426;2024-02-28T00:03:03;30.50;;;11.88;;
83630;SDS011;73593;52.134;5.426;2024-02-28T00:05:35;30.92;;;11.90;;
83630;SDS011;73593;52.134;5.426;2024-02-28T00:08:02;31.08;;;12.18;;
83630;SDS011;73593;52.134;5.426;2024-02-28T00:10:29;30.75;;;11.45;;
83630;SDS011;73593;52.134;5.426;2024-02-28T00:13:00;26.95;;;10.20;;
83630;SDS011;73593;52.134;5.426;2024-02-28T00:15:27;31.58;;;12.30;;
83630;SDS011;73593;52.134;5.426;2024-02-28T00:17:54;31.98;;;10.35;;
83630;SDS011;73593;52.134;5.426;2024-02-28T00:20:21;29.30;;;10.85;;
83630;SDS011;73593;52.134;5.426;2024-02-28T00:22:50;31.42;;;12.00;;
83630;SDS011;73593;52.134;5.426;2024-02-28T00:25:19;30.10;;;11.35;;
83630;SDS011;73593;52.134;5.426;2024-02-28T00:27:45;35.13;;;12.98;;
83630;SDS011;73593;52.134;5.426;2024-02-28T00:30:17;31.48;;;10.88;;
83630;SDS011;73593;52.134;5.426;2024-02-28T00:32:46;31.48;;;11.52;;
83630;SDS011;73593;52.134;5.426;2024-02-28T00:35:12;33.15;;;11.85;;
83630;SDS011;73593;52.134;5.426;2024-02-28T00:37:44;33.63;;;10.60;;
83630;SDS011;73593;52.134;5.426;2024-02-28T00:40:11;33.65;;;10.55;;
83630;SDS011;73593;52.134;5.426;2024-02-28T00:42:38;31.30;;;10.65;;
83630;SDS011;73593;52.134;5.426;2024-02-28T00:45:04;29.92;;;11.85;;
83630;SDS011;73593;52.134;5.426;2024-02-28T00:47:36;29.83;;;11.32;;
83630;SDS011;73593;52.134;5.426;2024-02-28T00:50:06;33.20;;;10.52;;
83630;SDS011;73593;52.134;5.426;2024-02-28T00:52:37;31.63;;;12.70;;
83630;SDS011;73593;52.134;5.426;2024-02-28T00:55:04;29.83;;;11.18;;
83630;SDS011;73593;52.134;5.426;2024-02-28T00:57:33;34.40;;;12.20;;
83630;SDS011;73593;52.134;5.426;2024-02-28T01:00:00;34.72;;;11.80;;
83630;SDS011;73593;52.134;5.426;2024-02-28T01:02:27;30.67;;;10.80;;
83630;SDS011;73593;52.134;5.426;2024-02-28T01:04:53;30.23;;;11.15;;
83630;SDS011;73593;52.134;5.426;2024-02-28T01:07:20;27.92;;;11.07;;
83630;SDS011;73593;52.134;5.426;2024-02-28T01:09:49;31.40;;;11.07;;
83630;SDS011;73593;52.134;5.426;2024-02-28T01:12:16;30.27;;;10.90;;
83630;SDS011;73593;52.134;5.426;2024-02-28T01:14:43;28.73;;;10.02;;
83630;SDS011;73593;52.134;5.426;2024-02-28T01:17:10;31.98;;;11.85;;
83630;SDS011;73593;52.134;5.426;2024-02-28T01:19:36;32.17;;;11.30;;
83630;SDS011;73593;52.134;5.426;2024-02-28T01:22:03;28.17;;;10.52;;
83630;SDS011;73593;52.134;5.426;2024-02-28T01:24:30;27.60;;;11.00;;
83630;SDS011;73593;52.134;5.426;2024-02-28T01:26:59;31.05;;;11.65;;
83630;SDS011;73593;52.134;5.426;2024-02-28T01:29:26;32.83;;;11.48;;
83630;SDS011;73593;52.134;5.426;2024-02-28T01:31:55;31.35;;;11.75;;
83630;SDS011;73593;52.134;5.426;2024-02-28T01:34:22;32.20;;;11.52;;
83630;SDS011;73593;52.134;5.426;2024-02-28T01:36:48;28.73;;;10.75;;
83630;SDS011;73593;52.134;5.426;2024-02-28T01:39:15;35.75;;;12.10;;
83630;SDS011;73593;52.134;5.426;2024-02-28T01:41:49;28.52;;;11.38;;
83630;SDS011;73593;52.134;5.426;2024-02-28T01:44:17;30.30;;;11.13;;
83630;SDS011;73593;52.134;5.426;2024-02-28T01:46:46;39.00;;;13.05;;
83630;SDS011;73593;52.134;5.426;2024-02-28T01:49:13;41.60;;;12.07;;
83630;SDS011;73593;52.134;5.426;2024-02-28T01:51:41;39.50;;;12.98;;
83630;SDS011;73593;52.134;5.426;2024-02-28T01:54:08;51.20;;;12.02;;
83630;SDS011;73593;52.134;5.426;2024-02-28T01:56:37;74.35;;;12.50;;
83630;SDS011;73593;52.134;5.426;2024-02-28T01:59:05;45.42;;;11.00;;
83630;SDS011;73593;52.134;5.426;2024-02-28T02:01:33;42.45;;;10.85;;
83630;SDS011;73593;52.134;5.426;2024-02-28T02:04:00;66.47;;;11.85;;
83630;SDS011;73593;52.134;5.426;2024-02-28T02:06:26;86.25;;;11.90;;
83630;SDS011;73593;52.134;5.426;2024-02-28T02:08:55;48.50;;;10.52;;
83630;SDS011;73593;52.134;5.426;2024-02-28T02:11:22;55.83;;;10.80;;
83630;SDS011;73593;52.134;5.426;2024-02-28T02:13:53;75.47;;;11.25;;
83630;SDS011;73593;52.134;5.426;2024-02-28T02:16:19;30.58;;;9.88;;
83630;SDS011;73593;52.134;5.426;2024-02-28T02:18:53;42.35;;;9.40;;
83630;SDS011;73593;52.134;5.426;2024-02-28T02:21:23;31.95;;;9.02;;
83630;SDS011;73593;52.134;5.426;2024-02-28T02:23:55;41.30;;;9.80;;
83630;SDS011;73593;52.134;5.426;2024-02-28T02:26:24;31.65;;;10.30;;
83630;SDS011;73593;52.134;5.426;2024-02-28T02:28:51;31.55;;;9.77;;
83630;SDS011;73593;52.134;5.426;2024-02-28T02:31:20;32.63;;;10.57;;
83630;SDS011;73593;52.134;5.426;2024-02-28T02:33:46;23.92;;;10.02;;
83630;SDS011;73593;52.134;5.426;2024-02-28T02:36:13;40.65;;;9.80;;
83630;SDS011;73593;52.134;5.426;2024-02-28T02:38:40;30.25;;;9.25;;
83630;SDS011;73593;52.134;5.426;2024-02-28T02:41:09;22.83;;;9.40;;
83630;SDS011;73593;52.134;5.426;2024-02-28T02:43:38;35.20;;;9.05;;
83630;SDS011;73593;52.134;5.426;2024-02-28T02:46:05;25.58;;;9.63;;
83630;SDS011;73593;52.134;5.426;2024-02-28T02:48:32;26.92;;;9.07;;
83630;SDS011;73593;52.134;5.426;2024-02-28T02:50:59;29.85;;;9.35;;
83630;SDS011;73593;52.134;5.426;2024-02-28T02:53:26;24.30;;;8.43;;
83630;SDS011;73593;52.134;5.426;2024-02-28T02:55:52;25.65;;;9.13;;
83630;SDS011;73593;52.134;5.426;2024-02-28T02:58:20;30.50;;;8.98;;
83630;SDS011;73593;52.134;5.426;2024-02-28T03:00:47;25.95;;;9.10;;
83630;SDS011;73593;52.134;5.426;2024-02-28T03:03:18;26.35;;;9.77;;
83630;SDS011;73593;52.134;5.426;2024-02-28T03:05:45;27.65;;;10.13;;
83630;SDS011;73593;52.134;5.426;2024-02-28T03:08:12;25.80;;;9.02;;
83630;SDS011;73593;52.134;5.426;2024-02-28T03:10:41;26.05;;;9.63;;
83630;SDS011;73593;52.134;5.426;2024-02-28T03:13:08;29.48;;;10.18;;
83630;SDS011;73593;52.134;5.426;2024-02-28T03:15:34;27.60;;;10.20;;
83630;SDS011;73593;52.134;5.426;2024-02-28T03:18:01;24.75;;;9.05;;
83630;SDS011;73593;52.134;5.426;2024-02-28T03:20:28;26.27;;;10.27;;
83630;SDS011;73593;52.134;5.426;2024-02-28T03:22:58;23.42;;;10.02;;
83630;SDS011;73593;52.134;5.426;2024-02-28T03:25:26;27.45;;;11.20;;
83630;SDS011;73593;52.134;5.426;2024-02-28T03:27:54;23.15;;;9.85;;
83630;SDS011;73593;52.134;5.426;2024-02-28T03:30:23;21.90;;;9.27;;
83630;SDS011;73593;52.134;5.426;2024-02-28T03:32:50;25.25;;;9.15;;
83630;SDS011;73593;52.134;5.426;2024-02-28T03:35:22;23.98;;;9.27;;
83630;SDS011;73593;52.134;5.426;2024-02-28T03:37:51;24.90;;;10.25;;
83630;SDS011;73593;52.134;5.426;2024-02-28T03:40:17;23.65;;;9.35;;
83630;SDS011;73593;52.134;5.426;2024-02-28T03:42:46;24.80;;;9.38;;
83630;SDS011;73593;52.134;5.426;2024-02-28T03:45:13;21.08;;;9.05;;
83630;SDS011;73593;52.134;5.426;2024-02-28T03:47:42;22.08;;;8.93;;
83630;SDS011;73593;52.134;5.426;2024-02-28T03:50:09;24.10;;;9.73;;
83630;SDS011;73593;52.134;5.426;2024-02-28T03:52:38;21.50;;;9.05;;
83630;SDS011;73593;52.134;5.426;2024-02-28T03:55:10;24.05;;;8.57;;
83630;SDS011;73593;52.134;5.426;2024-02-28T03:57:38;23.17;;;9.00;;
83630;SDS011;73593;52.134;5.426;2024-02-28T04:00:05;21.63;;;8.75;;
83630;SDS011;73593;52.134;5.426;2024-02-28T04:02:35;21.33;;;8.85;;
83630;SDS011;73593;52.134;5.426;2024-02-28T04:05:05;21.60;;;8.82;;
83630;SDS011;73593;52.134;5.426;2024-02-28T04:07:32;21.40;;;8.77;;
83630;SDS011;73593;52.134;5.426;2024-02-28T04:10:00;22.35;;;8.00;;
83630;SDS011;73593;52.134;5.426;2024-02-28T04:12:26;19.30;;;8.55;;
83630;SDS011;73593;52.134;5.426;2024-02-28T04:14:56;23.98;;;9.10;;
83630;SDS011;73593;52.134;5.426;2024-02-28T04:17:25;21.58;;;7.95;;
83630;SDS011;73593;52.134;5.426;2024-02-28T04:19:54;18.50;;;8.23;;
83630;SDS011;73593;52.134;5.426;2024-02-28T04:22:23;18.00;;;9.07;;
83630;SDS011;73593;52.134;5.426;2024-02-28T04:24:52;18.73;;;8.20;;
83630;SDS011;73593;52.134;5.426;2024-02-28T04:27:19;18.92;;;8.00;;
83630;SDS011;73593;52.134;5.426;2024-02-28T04:29:46;19.75;;;9.10;;
83630;SDS011;73593;52.134;5.426;2024-02-28T04:32:13;19.52;;;8.15;;
83630;SDS011;73593;52.134;5.426;2024-02-28T04:34:40;18.92;;;8.48;;
83630;SDS011;73593;52.134;5.426;2024-02-28T04:37:06;19.48;;;8.07;;
83630;SDS011;73593;52.134;5.426;2024-02-28T04:39:33;17.58;;;8.25;;
83630;SDS011;73593;52.134;5.426;2024-02-28T04:42:00;22.23;;;9.00;;
83630;SDS011;73593;52.134;5.426;2024-02-28T04:44:29;18.10;;;8.52;;
83630;SDS011;73593;52.134;5.426;2024-02-28T04:46:59;20.20;;;8.32;;
83630;SDS011;73593;52.134;5.426;2024-02-28T04:49:26;19.70;;;8.57;;
83630;SDS011;73593;52.134;5.426;2024-02-28T04:51:52;19.95;;;8.27;;
83630;SDS011;73593;52.134;5.426;2024-02-28T04:54:19;20.55;;;8.93;;
83630;SDS011;73593;52.134;5.426;2024-02-28T04:56:48;17.40;;;8.52;;
83630;SDS011;73593;52.134;5.426;2024-02-28T04:59:17;20.45;;;9.52;;
83630;SDS011;73593;52.134;5.426;2024-02-28T05:01:46;21.10;;;9.10;;
83630;SDS011;73593;52.134;5.426;2024-02-28T05:04:15;19.10;;;7.88;;
83630;SDS011;73593;52.134;5.426;2024-02-28T05:06:44;18.92;;;8.73;;
83630;SDS011;73593;52.134;5.426;2024-02-28T05:09:13;19.17;;;8.52;;
83630;SDS011;73593;52.134;5.426;2024-02-28T05:11:43;21.05;;;8.45;;
83630;SDS011;73593;52.134;5.426;2024-02-28T05:14:10;17.80;;;8.25;;
83630;SDS011;73593;52.134;5.426;2024-02-28T05:16:39;19.63;;;8.70;;
83630;SDS011;73593;52.134;5.426;2024-02-28T05:19:11;18.50;;;9.10;;
83630;SDS011;73593;52.134;5.426;2024-02-28T05:21:44;19.75;;;8.15;;
83630;SDS011;73593;52.134;5.426;2024-02-28T05:24:11;17.58;;;8.68;;
83630;SDS011;73593;52.134;5.426;2024-02-28T05:26:41;18.45;;;8.15;;
83630;SDS011;73593;52.134;5.426;2024-02-28T05:29:08;17.17;;;7.68;;
83630;SDS011;73593;52.134;5.426;2024-02-28T05:31:37;15.48;;;7.38;;
83630;SDS011;73593;52.134;5.426;2024-02-28T05:34:06;17.40;;;8.25;;
83630;SDS011;73593;52.134;5.426;2024-02-28T05:36:35;17.48;;;7.90;;
83630;SDS011;73593;52.134;5.426;2024-02-28T05:39:02;18.50;;;8.85;;
83630;SDS011;73593;52.134;5.426;2024-02-28T05:41:32;17.75;;;9.60;;
83630;SDS011;73593;52.134;5.426;2024-02-28T05:44:01;20.20;;;8.18;;
83630;SDS011;73593;52.134;5.426;2024-02-28T05:46:30;20.27;;;8.50;;
83630;SDS011;73593;52.134;5.426;2024-02-28T05:48:57;20.63;;;9.15;;
83630;SDS011;73593;52.134;5.426;2024-02-28T05:51:24;17.60;;;8.82;;
83630;SDS011;73593;52.134;5.426;2024-02-28T05:53:51;17.48;;;8.35;;
83630;SDS011;73593;52.134;5.426;2024-02-28T05:56:20;17.23;;;7.95;;
83630;SDS011;73593;52.134;5.426;2024-02-28T05:58:48;17.30;;;8.15;;
83630;SDS011;73593;52.134;5.426;2024-02-28T06:01:20;19.15;;;9.23;;
83630;SDS011;73593;52.134;5.426;2024-02-28T06:03:50;16.35;;;8.20;;
83630;SDS011;73593;52.134;5.426;2024-02-28T06:06:20;19.05;;;9.40;;
83630;SDS011;73593;52.134;5.426;2024-02-28T06:08:46;18.08;;;7.53;;
83630;SDS011;73593;52.134;5.426;2024-02-28T06:11:13;23.52;;;9.73;;
83630;SDS011;73593;52.134;5.426;2024-02-28T06:13:40;19.55;;;9.55;;
83630;SDS011;73593;52.134;5.426;2024-02-28T06:16:07;16.70;;;9.05;;
83630;SDS011;73593;52.134;5.426;2024-02-28T06:18:39;18.38;;;9.20;;
83630;SDS011;73593;52.134;5.426;2024-02-28T06:21:06;18.45;;;9.07;;
83630;SDS011;73593;52.134;5.426;2024-02-28T06:23:35;19.25;;;9.38;;
83630;SDS011;73593;52.134;5.426;2024-02-28T06:26:01;19.52;;;8.55;;
83630;SDS011;73593;52.134;5.426;2024-02-28T06:28:28;16.42;;;8.50;;
83630;SDS011;73593;52.134;5.426;2024-02-28T06:30:55;19.08;;;8.75;;
83630;SDS011;73593;52.134;5.426;2024-02-28T06:33:24;19.45;;;8.18;;
83630;SDS011;73593;52.134;5.426;2024-02-28T06:35:51;18.05;;;8.45;;
83630;SDS011;73593;52.134;5.426;2024-02-28T06:38:18;17.08;;;8.77;;
83630;SDS011;73593;52.134;5.426;2024-02-28T06:40:47;20.13;;;8.60;;
83630;SDS011;73593;52.134;5.426;2024-02-28T06:43:17;17.90;;;8.32;;
83630;SDS011;73593;52.134;5.426;2024-02-28T06:45:44;19.23;;;8.63;;
83630;SDS011;73593;52.134;5.426;2024-02-28T06:48:11;22.17;;;9.25;;
83630;SDS011;73593;52.134;5.426;2024-02-28T06:50:38;17.40;;;9.18;;
83630;SDS011;73593;52.134;5.426;2024-02-28T06:53:07;20.77;;;8.80;;
83630;SDS011;73593;52.134;5.426;2024-02-28T06:55:39;16.05;;;8.30;;
83630;SDS011;73593;52.134;5.426;2024-02-28T06:58:06;20.48;;;9.02;;
83630;SDS011;73593;52.134;5.426;2024-02-28T07:00:32;16.60;;;8.55;;
83630;SDS011;73593;52.134;5.426;2024-02-28T07:02:59;17.50;;;9.18;;
83630;SDS011;73593;52.134;5.426;2024-02-28T07:05:28;18.52;;;8.55;;
83630;SDS011;73593;52.134;5.426;2024-02-28T07:07:57;17.88;;;8.40;;
83630;SDS011;73593;52.134;5.426;2024-02-28T07:10:26;17.38;;;8.68;;
83630;SDS011;73593;52.134;5.426;2024-02-28T07:12:53;16.58;;;8.60;;
83630;SDS011;73593;52.134;5.426;2024-02-28T07:15:22;21.92;;;9.20;;
83630;SDS011;73593;52.134;5.426;2024-02-28T07:17:49;22.05;;;8.65;;
83630;SDS011;73593;52.134;5.426;2024-02-28T07:20:16;23.60;;;9.05;;
83630;SDS011;73593;52.134;5.426;2024-02-28T07:22:43;17.25;;;8.30;;
83630;SDS011;73593;52.134;5.426;2024-02-28T07:25:13;18.90;;;8.18;;
83630;SDS011;73593;52.134;5.426;2024-02-28T07:27:42;17.70;;;10.23;;
83630;SDS011;73593;52.134;5.426;2024-02-28T07:30:08;16.75;;;8.60;;
83630;SDS011;73593;52.134;5.426;2024-02-28T07:32:42;17.83;;;8.95;;
83630;SDS011;73593;52.134;5.426;2024-02-28T07:35:11;15.98;;;8.05;;
83630;SDS011;73593;52.134;5.426;2024-02-28T07:37:38;17.52;;;9.43;;
83630;SDS011;73593;52.134;5.426;2024-02-28T07:40:05;19.50;;;9.35;;
83630;SDS011;73593;52.134;5.426;2024-02-28T07:42:35;29.02;;;12.63;;
83630;SDS011;73593;52.134;5.426;2024-02-28T07:45:04;20.17;;;9.70;;
83630;SDS011;73593;52.134;5.426;2024-02-28T07:47:35;20.08;;;9.15;;
83630;SDS011;73593;52.134;5.426;2024-02-28T07:50:03;16.92;;;9.82;;
83630;SDS011;73593;52.134;5.426;2024-02-28T07:52:31;22.20;;;9.30;;
83630;SDS011;73593;52.134;5.426;2024-02-28T07:55:04;19.90;;;9.82;;
83630;SDS011;73593;52.134;5.426;2024-02-28T07:57:31;17.63;;;9.35;;
83630;SDS011;73593;52.134;5.426;2024-02-28T08:00:00;19.00;;;9.68;;
83630;SDS011;73593;52.134;5.426;2024-02-28T08:02:27;19.23;;;9.60;;
83630;SDS011;73593;52.134;5.426;2024-02-28T08:04:56;21.02;;;11.07;;
83630;SDS011;73593;52.134;5.426;2024-02-28T08:07:23;18.88;;;9.43;;
83630;SDS011;73593;52.134;5.426;2024-02-28T08:09:52;19.38;;;9.70;;
83630;SDS011;73593;52.134;5.426;2024-02-28T08:12:21;18.90;;;9.52;;
83630;SDS011;73593;52.134;5.426;2024-02-28T08:14:48;21.95;;;9.77;;
83630;SDS011;73593;52.134;5.426;2024-02-28T08:17:27;20.30;;;9.38;;
83630;SDS011;73593;52.134;5.426;2024-02-28T08:23:35;23.80;;;10.77;;
83630;SDS011;73593;52.134;5.426;2024-02-28T08:26:04;19.38;;;9.35;;
83630;SDS011;73593;52.134;5.426;2024-02-28T08:28:31;18.50;;;9.45;;
83630;SDS011;73593;52.134;5.426;2024-02-28T08:30:58;23.45;;;9.88;;
83630;SDS011;73593;52.134;5.426;2024-02-28T08:33:27;18.85;;;9.18;;
83630;SDS011;73593;52.134;5.426;2024-02-28T08:35:57;18.73;;;9.90;;
83630;SDS011;73593;52.134;5.426;2024-02-28T08:38:26;16.98;;;10.23;;
83630;SDS011;73593;52.134;5.426;2024-02-28T08:40:58;23.95;;;10.82;;
83630;SDS011;73593;52.134;5.426;2024-02-28T08:43:24;19.17;;;10.35;;
83630;SDS011;73593;52.134;5.426;2024-02-28T08:45:56;19.15;;;10.07;;
83630;SDS011;73593;52.134;5.426;2024-02-28T08:48:23;19.83;;;10.63;;
83630;SDS011;73593;52.134;5.426;2024-02-28T08:50:49;19.00;;;11.52;;
83630;SDS011;73593;52.134;5.426;2024-02-28T08:53:16;19.70;;;10.45;;
83630;SDS011;73593;52.134;5.426;2024-02-28T08:55:43;20.55;;;10.60;;
83630;SDS011;73593;52.134;5.426;2024-02-28T08:58:14;21.75;;;11.02;;
83630;SDS011;73593;52.134;5.426;2024-02-28T09:00:41;21.35;;;10.88;;
83630;SDS011;73593;52.134;5.426;2024-02-28T09:03:08;19.17;;;11.05;;
83630;SDS011;73593;52.134;5.426;2024-02-28T09:05:34;20.67;;;11.07;;
83630;SDS011;73593;52.134;5.426;2024-02-28T09:08:06;20.73;;;11.32;;
83630;SDS011;73593;52.134;5.426;2024-02-28T09:10:39;24.25;;;11.48;;
83630;SDS011;73593;52.134;5.426;2024-02-28T09:13:06;21.05;;;12.05;;
83630;SDS011;73593;52.134;5.426;2024-02-28T09:15:34;21.98;;;12.00;;
83630;SDS011;73593;52.134;5.426;2024-02-28T09:18:01;22.00;;;12.48;;
83630;SDS011;73593;52.134;5.426;2024-02-28T09:20:28;21.10;;;12.10;;
83630;SDS011;73593;52.134;5.426;2024-02-28T09:22:57;23.95;;;13.20;;
83630;SDS011;73593;52.134;5.426;2024-02-28T09:25:24;22.45;;;11.73;;
83630;SDS011;73593;52.134;5.426;2024-02-28T09:27:54;22.92;;;12.18;;
83630;SDS011;73593;52.134;5.426;2024-02-28T09:30:23;27.40;;;13.55;;
83630;SDS011;73593;52.134;5.426;2024-02-28T09:33:00;24.50;;;11.88;;
83630;SDS011;73593;52.134;5.426;2024-02-28T09:35:27;26.70;;;12.68;;
83630;SDS011;73593;52.134;5.426;2024-02-28T09:37:56;24.25;;;13.23;;
83630;SDS011;73593;52.134;5.426;2024-02-28T09:40:25;23.33;;;13.35;;
83630;SDS011;73593;52.134;5.426;2024-02-28T09:42:57;28.20;;;13.02;;
83630;SDS011;73593;52.134;5.426;2024-02-28T09:45:28;29.30;;;12.52;;
83630;SDS011;73593;52.134;5.426;2024-02-28T09:48:00;24.48;;;12.85;;
83630;SDS011;73593;52.134;5.426;2024-02-28T09:50:27;25.20;;;12.02;;
83630;SDS011;73593;52.134;5.426;2024-02-28T09:52:54;25.08;;;13.02;;
83630;SDS011;73593;52.134;5.426;2024-02-28T09:55:35;23.10;;;13.48;;
83630;SDS011;73593;52.134;5.426;2024-02-28T09:58:02;22.92;;;12.63;;
83630;SDS011;73593;52.134;5.426;2024-02-28T10:00:34;25.20;;;12.82;;
83630;SDS011;73593;52.134;5.426;2024-02-28T10:03:02;25.38;;;13.40;;
83630;SDS011;73593;52.134;5.426;2024-02-28T10:05:30;21.65;;;12.13;;
83630;SDS011;73593;52.134;5.426;2024-02-28T10:08:01;26.80;;;13.18;;
83630;SDS011;73593;52.134;5.426;2024-02-28T10:10:28;21.95;;;11.73;;
83630;SDS011;73593;52.134;5.426;2024-02-28T10:12:54;25.83;;;11.68;;
83630;SDS011;73593;52.134;5.426;2024-02-28T10:15:22;22.40;;;11.60;;
83630;SDS011;73593;52.134;5.426;2024-02-28T10:17:57;21.77;;;12.57;;
83630;SDS011;73593;52.134;5.426;2024-02-28T10:20:24;21.67;;;11.93;;
83630;SDS011;73593;52.134;5.426;2024-02-28T10:22:52;19.15;;;11.05;;
83630;SDS011;73593;52.134;5.426;2024-02-28T10:25:21;23.38;;;11.98;;
83630;SDS011;73593;52.134;5.426;2024-02-28T10:27:47;24.48;;;11.68;;
83630;SDS011;73593;52.134;5.426;2024-02-28T10:30:18;23.50;;;12.15;;
83630;SDS011;73593;52.134;5.426;2024-02-28T10:32:49;25.67;;;11.82;;
83630;SDS011;73593;52.134;5.426;2024-02-28T10:35:19;22.55;;;11.95;;
83630;SDS011;73593;52.134;5.426;2024-02-28T10:37:53;23.85;;;11.20;;
83630;SDS011;73593;52.134;5.426;2024-02-28T10:40:22;22.85;;;11.90;;
83630;SDS011;73593;52.134;5.426;2024-02-28T10:42:54;24.33;;;14.18;;
83630;SDS011;73593;52.134;5.426;2024-02-28T10:45:27;22.25;;;12.27;;
83630;SDS011;73593;52.134;5.426;2024-02-28T10:48:17;20.80;;;10.65;;
83630;SDS011;73593;52.134;5.426;2024-02-28T10:50:46;20.45;;;11.80;;
83630;SDS011;73593;52.134;5.426;2024-02-28T10:53:13;25.30;;;12.63;;
83630;SDS011;73593;52.134;5.426;2024-02-28T10:55:43;23.70;;;12.90;;
83630;SDS011;73593;52.134;5.426;2024-02-28T10:58:17;27.27;;;12.82;;
83630;SDS011;73593;52.134;5.426;2024-02-28T11:00:51;23.73;;;12.13;;
83630;SDS011;73593;52.134;5.426;2024-02-28T11:03:19;28.13;;;13.98;;
83630;SDS011;73593;52.134;5.426;2024-02-28T11:05:48;27.00;;;13.70;;
83630;SDS011;73593;52.134;5.426;2024-02-28T11:08:24;26.23;;;14.40;;
83630;SDS011;73593;52.134;5.426;2024-02-28T11:11:03;24.75;;;12.98;;
83630;SDS011;73593;52.134;5.426;2024-02-28T11:13:33;27.88;;;13.02;;
83630;SDS011;73593;52.134;5.426;2024-02-28T11:16:09;25.42;;;13.45;;
83630;SDS011;73593;52.134;5.426;2024-02-28T11:18:48;25.88;;;13.70;;
83630;SDS011;73593;52.134;5.426;2024-02-28T11:21:18;25.38;;;13.55;;
83630;SDS011;73593;52.134;5.426;2024-02-28T11:23:48;31.30;;;15.27;;
83630;SDS011;73593;52.134;5.426;2024-02-28T11:26:15;23.75;;;13.20;;
83630;SDS011;73593;52.134;5.426;2024-02-28T11:28:42;27.27;;;13.43;;
83630;SDS011;73593;52.134;5.426;2024-02-28T11:31:09;25.58;;;13.40;;
83630;SDS011;73593;52.134;5.426;2024-02-28T11:33:36;23.42;;;12.68;;
83630;SDS011;73593;52.134;5.426;2024-02-28T11:36:03;24.15;;;12.27;;
83630;SDS011;73593;52.134;5.426;2024-02-28T11:38:30;22.55;;;11.93;;
83630;SDS011;73593;52.134;5.426;2024-02-28T11:41:01;23.88;;;10.85;;
83630;SDS011;73593;52.134;5.426;2024-02-28T11:43:33;27.90;;;11.85;;
83630;SDS011;73593;52.134;5.426;2024-02-28T11:46:19;23.30;;;10.77;;
83630;SDS011;73593;52.134;5.426;2024-02-28T11:48:49;25.58;;;11.10;;
83630;SDS011;73593;52.134;5.426;2024-02-28T11:51:16;27.48;;;12.40;;
83630;SDS011;73593;52.134;5.426;2024-02-28T11:53:45;31.17;;;12.75;;
83630;SDS011;73593;52.134;5.426;2024-02-28T11:56:14;28.20;;;11.98;;
83630;SDS011;73593;52.134;5.426;2024-02-28T11:58:53;23.70;;;11.95;;
83630;SDS011;73593;52.134;5.426;2024-02-28T12:01:43;23.40;;;12.05;;
83630;SDS011;73593;52.134;5.426;2024-02-28T12:04:16;27.98;;;11.90;;
83630;SDS011;73593;52.134;5.426;2024-02-28T12:06:43;24.63;;;11.88;;
83630;SDS011;73593;52.134;5.426;2024-02-28T12:09:12;23.13;;;12.27;;
83630;SDS011;73593;52.134;5.426;2024-02-28T12:14:19;25.67;;;11.75;;
83630;SDS011;73593;52.134;5.426;2024-02-28T12:16:46;25.20;;;11.60;;
83630;SDS011;73593;52.134;5.426;2024-02-28T12:19:17;26.48;;;12.15;;
83630;SDS011;73593;52.134;5.426;2024-02-28T12:21:46;26.05;;;11.38;;
83630;SDS011;73593;52.134;5.426;2024-02-28T12:24:17;24.52;;;12.30;;
83630;SDS011;73593;52.134;5.426;2024-02-28T12:26:46;23.52;;;11.48;;
83630;SDS011;73593;52.134;5.426;2024-02-28T12:29:13;23.73;;;11.43;;
83630;SDS011;73593;52.134;5.426;2024-02-28T12:31:40;22.27;;;10.40;;
83630;SDS011;73593;52.134;5.426;2024-02-28T12:34:09;21.42;;;10.88;;
83630;SDS011;73593;52.134;5.426;2024-02-28T12:36:36;21.92;;;10.75;;
83630;SDS011;73593;52.134;5.426;2024-02-28T12:39:03;21.33;;;11.48;;
83630;SDS011;73593;52.134;5.426;2024-02-28T12:41:35;25.25;;;10.68;;
83630;SDS011;73593;52.134;5.426;2024-02-28T12:44:04;23.08;;;9.88;;
83630;SDS011;73593;52.134;5.426;2024-02-28T12:46:36;23.35;;;10.57;;
83630;SDS011;73593;52.134;5.426;2024-02-28T12:49:03;20.88;;;10.65;;
83630;SDS011;73593;52.134;5.426;2024-02-28T12:51:39;20.40;;;9.70;;
83630;SDS011;73593;52.134;5.426;2024-02-28T12:54:08;23.35;;;10.02;;
83630;SDS011;73593;52.134;5.426;2024-02-28T12:56:38;23.00;;;11.20;;
83630;SDS011;73593;52.134;5.426;2024-02-28T12:59:06;23.35;;;10.63;;
83630;SDS011;73593;52.134;5.426;2024-02-28T13:01:38;20.83;;;10.25;;
83630;SDS011;73593;52.134;5.426;2024-02-28T13:04:05;32.45;;;15.45;;
83630;SDS011;73593;52.134;5.426;2024-02-28T13:06:34;21.90;;;10.27;;
83630;SDS011;73593;52.134;5.426;2024-02-28T13:09:03;21.02;;;10.00;;
83630;SDS011;73593;52.134;5.426;2024-02-28T13:11:41;23.35;;;11.13;;
83630;SDS011;73593;52.134;5.426;2024-02-28T13:14:08;22.35;;;10.55;;
83630;SDS011;73593;52.134;5.426;2024-02-28T13:16:37;21.30;;;10.90;;
83630;SDS011;73593;52.134;5.426;2024-02-28T13:19:06;23.42;;;10.48;;
83630;SDS011;73593;52.134;5.426;2024-02-28T13:21:32;22.80;;;10.65;;
83630;SDS011;73593;52.134;5.426;2024-02-28T13:26:27;19.42;;;9.57;;
83630;SDS011;73593;52.134;5.426;2024-02-28T13:28:54;21.67;;;10.60;;
83630;SDS011;73593;52.134;5.426;2024-02-28T13:31:20;19.73;;;9.27;;
83630;SDS011;73593;52.134;5.426;2024-02-28T13:33:47;19.77;;;9.55;;
83630;SDS011;73593;52.134;5.426;2024-02-28T13:36:15;20.58;;;10.52;;
83630;SDS011;73593;52.134;5.426;2024-02-28T13:38:42;20.40;;;10.32;;
83630;SDS011;73593;52.134;5.426;2024-02-28T13:41:08;21.38;;;11.02;;
83630;SDS011;73593;52.134;5.426;2024-02-28T13:43:35;21.20;;;10.52;;
83630;SDS011;73593;52.134;5.426;2024-02-28T13:46:02;21.15;;;10.95;;
83630;SDS011;73593;52.134;5.426;2024-02-28T13:48:31;24.90;;;12.02;;
83630;SDS011;73593;52.134;5.426;2024-02-28T13:51:00;24.48;;;11.68;;
83630;SDS011;73593;52.134;5.426;2024-02-28T13:53:30;19.33;;;11.57;;
83630;SDS011;73593;52.134;5.426;2024-02-28T13:55:57;23.25;;;11.15;;
83630;SDS011;73593;52.134;5.426;2024-02-28T13:58:24;18.13;;;10.52;;
83630;SDS011;73593;52.134;5.426;2024-02-28T14:01:01;22.73;;;11.10;;
83630;SDS011;73593;52.134;5.426;2024-02-28T14:03:28;20.45;;;10.77;;
83630;SDS011;73593;52.134;5.426;2024-02-28T14:05:57;22.00;;;10.20;;
83630;SDS011;73593;52.134;5.426;2024-02-28T14:08:24;20.25;;;9.93;;
83630;SDS011;73593;52.134;5.426;2024-02-28T14:11:01;20.00;;;10.68;;
83630;SDS011;73593;52.134;5.426;2024-02-28T14:13:29;24.88;;;10.70;;
83630;SDS011;73593;52.134;5.426;2024-02-28T14:15:55;19.83;;;10.57;;
83630;SDS011;73593;52.134;5.426;2024-02-28T14:18:22;22.48;;;11.80;;
83630;SDS011;73593;52.134;5.426;2024-02-28T14:20:50;19.10;;;10.85;;
83630;SDS011;73593;52.134;5.426;2024-02-28T14:23:19;22.88;;;9.77;;
83630;SDS011;73593;52.134;5.426;2024-02-28T14:25:48;20.17;;;10.85;;
83630;SDS011;73593;52.134;5.426;2024-02-28T14:28:15;22.15;;;11.18;;
83630;SDS011;73593;52.134;5.426;2024-02-28T14:30:43;21.20;;;9.85;;
83630;SDS011;73593;52.134;5.426;2024-02-28T14:33:11;20.63;;;11.00;;
83630;SDS011;73593;52.134;5.426;2024-02-28T14:35:40;22.90;;;10.48;;
83630;SDS011;73593;52.134;5.426;2024-02-28T14:38:07;17.88;;;9.25;;
83630;SDS011;73593;52.134;5.426;2024-02-28T14:40:34;19.33;;;8.82;;
83630;SDS011;73593;52.134;5.426;2024-02-28T14:43:04;20.20;;;8.93;;